Time;durP1;ratioP1;P1;durP2;ratioP2;P2;SDS_P1;SDS_P2;PMS_P1;PMS_P2;Temp;Humidity;BMP_temperature;BMP_pressure;BME280_temperature;BME280_humidity;BME280_pressure;Samples;Min_cycle;Max_cycle;Signal;HPM_P1;HPM_P2
2023/08/11 00:01:07;;;;;;;2.67;1.80;;;;;;;;;;5083382;28;20641;-68
2023/08/11 00:03:35;;;;;;;3.45;2.30;;;;;;;;;;5086742;28;20157;-68
2023/08/11 00:06:07;;;;;;;4.30;2.30;;;;;;;;;;5088344;28;20404;-68
2023/08/11 00:08:38;;;;;;;3.45;2.28;;;;;;;;;;5088170;28;20076;-68
2023/08/11 00:11:07;;;;;;;4.90;2.40;;;;;;;;;;5087432;28;20320;-68
2023/08/11 00:13:35;;;;;;;3.55;1.92;;;;;;;;;;5087975;28;20135;-68
2023/08/11 00:16:04;;;;;;;5.75;2.50;;;;;;;;;;5087505;28;20044;-68
2023/08/11 00:18:33;;;;;;;5.13;2.20;;;;;;;;;;5085910;28;20048;-68
2023/08/11 00:21:02;;;;;;;4.50;1.88;;;;;;;;;;5085224;28;20052;-68
2023/08/11 00:23:31;;;;;;;8.95;2.75;;;;;;;;;;5086927;28;20416;-68
2023/08/11 00:26:00;;;;;;;5.88;2.10;;;;;;;;;;5088338;28;20052;-68
2023/08/11 00:28:29;;;;;;;6.70;2.55;;;;;;;;;;5087756;28;20044;-68
2023/08/11 00:30:58;;;;;;;6.60;2.88;;;;;;;;;;5085813;28;20075;-67
2023/08/11 00:33:26;;;;;;;5.78;2.45;;;;;;;;;;5086823;28;20077;-68
2023/08/11 00:35:55;;;;;;;10.77;2.47;;;;;;;;;;5085452;28;20099;-68
2023/08/11 00:38:24;;;;;;;4.97;2.63;;;;;;;;;;5087782;28;20040;-68
2023/08/11 00:40:53;;;;;;;4.88;2.20;;;;;;;;;;5084636;28;20040;-68
2023/08/11 00:43:22;;;;;;;4.07;2.45;;;;;;;;;;5085767;28;20036;-68
2023/08/11 00:45:51;;;;;;;7.28;2.15;;;;;;;;;;5086796;28;20393;-68
2023/08/11 00:48:19;;;;;;;3.90;2.22;;;;;;;;;;5085457;28;20123;-67
2023/08/11 00:50:48;;;;;;;7.80;2.60;;;;;;;;;;5086121;28;20071;-68
2023/08/11 00:53:16;;;;;;;4.88;2.33;;;;;;;;;;5085643;28;20423;-67
2023/08/11 00:55:44;;;;;;;3.75;2.30;;;;;;;;;;5086847;28;20040;-67
2023/08/11 00:58:13;;;;;;;4.13;2.35;;;;;;;;;;5087044;28;20052;-67
2023/08/11 01:00:44;;;;;;;5.82;2.67;;;;;;;;;;5086055;28;20051;-67
2023/08/11 01:03:12;;;;;;;6.80;2.20;;;;;;;;;;5080360;22;20044;-62
2023/08/11 01:05:44;;;;;;;5.43;2.50;;;;;;;;;;5064149;28;20512;-70
2023/08/11 01:08:15;;;;;;;4.88;2.25;;;;;;;;;;5066533;28;20503;-66
2023/08/11 01:10:47;;;;;;;3.95;2.30;;;;;;;;;;5063735;28;20045;-66
2023/08/11 01:13:18;;;;;;;4.28;2.10;;;;;;;;;;5066588;28;20125;-61
2023/08/11 01:15:53;;;;;;;3.88;2.20;;;;;;;;;;5066977;28;20045;-64
2023/08/11 01:18:23;;;;;;;3.40;2.35;;;;;;;;;;5067014;28;20068;-66
2023/08/11 01:20:54;;;;;;;7.30;2.58;;;;;;;;;;5063240;28;20041;-64
2023/08/11 01:23:24;;;;;;;4.35;2.53;;;;;;;;;;5064756;28;20102;-62
2023/08/11 01:25:53;;;;;;;5.05;2.83;;;;;;;;;;5065643;28;20093;-63
2023/08/11 01:28:21;;;;;;;6.65;2.47;;;;;;;;;;5066258;28;20072;-67
2023/08/11 01:30:49;;;;;;;4.03;2.33;;;;;;;;;;5062960;28;20508;-62
2023/08/11 01:33:17;;;;;;;4.05;2.15;;;;;;;;;;5065954;28;20048;-64
2023/08/11 01:35:46;;;;;;;3.25;2.20;;;;;;;;;;5063099;28;20101;-65
2023/08/11 01:38:14;;;;;;;3.47;2.35;;;;;;;;;;5063561;28;20501;-63
2023/08/11 01:40:44;;;;;;;7.18;2.30;;;;;;;;;;5065105;28;20508;-63
2023/08/11 01:43:15;;;;;;;4.93;2.35;;;;;;;;;;5066828;28;20055;-63
2023/08/11 01:45:44;;;;;;;4.38;2.63;;;;;;;;;;5062966;28;20059;-63
2023/08/11 01:48:13;;;;;;;4.65;2.55;;;;;;;;;;5061298;28;20065;-63
2023/08/11 01:50:41;;;;;;;3.72;2.20;;;;;;;;;;5061382;28;20501;-62
2023/08/11 01:53:10;;;;;;;4.80;2.17;;;;;;;;;;5063490;28;20044;-67
2023/08/11 01:55:38;;;;;;;4.20;2.15;;;;;;;;;;5064810;28;20102;-66
2023/08/11 01:58:08;;;;;;;5.00;2.13;;;;;;;;;;5063598;28;20048;-66
2023/08/11 02:00:36;;;;;;;7.90;2.33;;;;;;;;;;5067279;28;20065;-67
2023/08/11 02:03:05;;;;;;;3.60;2.10;;;;;;;;;;5055591;28;20061;-62
2023/08/11 02:05:33;;;;;;;5.75;1.90;;;;;;;;;;5045306;28;20095;-62
2023/08/11 02:08:02;;;;;;;4.28;2.47;;;;;;;;;;5047264;28;20045;-62
2023/08/11 02:10:31;;;;;;;4.18;2.42;;;;;;;;;;5044890;28;20438;-68
2023/08/11 02:13:00;;;;;;;3.40;2.50;;;;;;;;;;5046047;28;20053;-62
2023/08/11 02:15:30;;;;;;;6.70;2.20;;;;;;;;;;5042864;28;20072;-70
2023/08/11 02:17:59;;;;;;;4.03;2.20;;;;;;;;;;5046335;28;20415;-64
2023/08/11 02:20:27;;;;;;;3.60;2.22;;;;;;;;;;5045902;28;20055;-64
2023/08/11 02:22:55;;;;;;;3.45;2.30;;;;;;;;;;5047111;28;20045;-63
2023/08/11 02:25:25;;;;;;;2.67;2.10;;;;;;;;;;5040869;28;20052;-64
2023/08/11 02:27:54;;;;;;;3.83;2.22;;;;;;;;;;5047404;28;20462;-62
2023/08/11 02:30:23;;;;;;;4.30;2.20;;;;;;;;;;5045733;28;20045;-68
2023/08/11 02:32:53;;;;;;;3.75;2.13;;;;;;;;;;5047057;28;20056;-62
2023/08/11 02:35:21;;;;;;;4.63;2.40;;;;;;;;;;5043238;28;20248;-71
2023/08/11 02:37:50;;;;;;;2.95;2.00;;;;;;;;;;5045542;28;20103;-65
2023/08/11 02:40:20;;;;;;;5.70;2.47;;;;;;;;;;5046946;28;20168;-65
2023/08/11 02:42:54;;;;;;;3.13;2.33;;;;;;;;;;5047367;28;20083;-65
2023/08/11 02:45:23;;;;;;;3.08;1.92;;;;;;;;;;5042424;28;20546;-63
2023/08/11 02:47:52;;;;;;;4.40;2.55;;;;;;;;;;5047151;28;20057;-62
2023/08/11 02:50:21;;;;;;;3.22;2.05;;;;;;;;;;5044903;28;20045;-63
2023/08/11 02:52:49;;;;;;;4.93;2.20;;;;;;;;;;5045497;28;20433;-67
2023/08/11 02:55:18;;;;;;;5.38;2.28;;;;;;;;;;5043415;28;20076;-66
2023/08/11 02:57:46;;;;;;;3.85;2.38;;;;;;;;;;5045679;28;20886;-65
2023/08/11 03:00:15;;;;;;;3.97;2.35;;;;;;;;;;5044800;28;20415;-63
2023/08/11 03:02:45;;;;;;;3.97;2.28;;;;;;;;;;5053595;28;20139;-62
2023/08/11 03:05:16;;;;;;;4.28;2.35;;;;;;;;;;5060029;28;20052;-62
2023/08/11 03:07:45;;;;;;;4.65;2.40;;;;;;;;;;5063171;28;20052;-63
2023/08/11 03:10:13;;;;;;;4.30;2.25;;;;;;;;;;5063782;28;20052;-65
2023/08/11 03:12:42;;;;;;;5.20;2.20;;;;;;;;;;5064351;28;20065;-64
2023/08/11 03:15:10;;;;;;;3.28;2.10;;;;;;;;;;5064102;28;20095;-62
2023/08/11 03:17:39;;;;;;;4.50;2.33;;;;;;;;;;5065843;28;20106;-64
2023/08/11 03:20:12;;;;;;;4.57;2.00;;;;;;;;;;5062352;28;20106;-65
2023/08/11 03:22:42;;;;;;;2.78;2.08;;;;;;;;;;5064584;28;20060;-64
2023/08/11 03:25:11;;;;;;;3.92;2.40;;;;;;;;;;5064765;28;20710;-63
2023/08/11 03:27:43;;;;;;;3.67;2.38;;;;;;;;;;5063879;28;20044;-62
2023/08/11 03:30:12;;;;;;;3.08;2.08;;;;;;;;;;5059308;28;20047;-62
2023/08/11 03:32:41;;;;;;;4.05;2.58;;;;;;;;;;5064987;28;20394;-70
2023/08/11 03:35:10;;;;;;;4.72;2.55;;;;;;;;;;5062378;28;20098;-70
2023/08/11 03:37:38;;;;;;;4.68;2.50;;;;;;;;;;5062954;28;20040;-65
2023/08/11 03:40:12;;;;;;;4.05;2.08;;;;;;;;;;5068779;28;20044;-63
2023/08/11 03:42:42;;;;;;;7.50;2.58;;;;;;;;;;5068220;28;20049;-62
2023/08/11 03:45:12;;;;;;;4.63;2.22;;;;;;;;;;5066266;28;20114;-63
2023/08/11 03:47:41;;;;;;;3.72;2.28;;;;;;;;;;5066776;28;20090;-63
2023/08/11 03:50:10;;;;;;;4.07;2.38;;;;;;;;;;5067232;28;20041;-62
2023/08/11 03:52:39;;;;;;;6.57;2.30;;;;;;;;;;5067988;28;20051;-68
2023/08/11 03:55:10;;;;;;;4.50;2.05;;;;;;;;;;5067971;28;20107;-66
2023/08/11 03:57:39;;;;;;;3.53;2.22;;;;;;;;;;5066292;28;20481;-66
2023/08/11 04:00:09;;;;;;;3.35;2.67;;;;;;;;;;5066947;28;20546;-69
2023/08/11 04:02:37;;;;;;;4.00;2.40;;;;;;;;;;5067262;28;20048;-67
2023/08/11 04:05:06;;;;;;;5.30;2.15;;;;;;;;;;5066124;28;20074;-62
2023/08/11 04:07:34;;;;;;;4.50;2.63;;;;;;;;;;5066509;28;20150;-62
2023/08/11 04:10:04;;;;;;;5.13;2.35;;;;;;;;;;5066565;28;20102;-63
2023/08/11 04:12:34;;;;;;;6.13;2.20;;;;;;;;;;5066668;28;20048;-68
2023/08/11 04:15:02;;;;;;;4.25;1.98;;;;;;;;;;5064910;28;20040;-63
2023/08/11 04:17:33;;;;;;;3.65;2.30;;;;;;;;;;5066040;28;20052;-62
2023/08/11 04:20:07;;;;;;;3.47;2.22;;;;;;;;;;5068474;28;20512;-64
2023/08/11 04:22:35;;;;;;;3.80;2.08;;;;;;;;;;5064083;28;20060;-66
2023/08/11 04:25:07;;;;;;;3.05;2.22;;;;;;;;;;5066784;28;20051;-64
2023/08/11 04:27:37;;;;;;;5.93;2.42;;;;;;;;;;5065703;28;20348;-66
2023/08/11 04:30:05;;;;;;;3.17;2.20;;;;;;;;;;5064429;28;20056;-71
2023/08/11 04:32:34;;;;;;;3.38;2.20;;;;;;;;;;5067265;28;20048;-62
2023/08/11 04:35:04;;;;;;;5.50;2.60;;;;;;;;;;5066158;28;20064;-66
2023/08/11 04:37:35;;;;;;;3.33;2.22;;;;;;;;;;5064101;28;20111;-66
2023/08/11 04:40:06;;;;;;;7.70;2.65;;;;;;;;;;5067022;28;20087;-62
2023/08/11 04:42:36;;;;;;;4.28;2.75;;;;;;;;;;5067193;28;20049;-62
2023/08/11 04:45:06;;;;;;;7.13;2.60;;;;;;;;;;5066641;28;20045;-64
2023/08/11 04:47:34;;;;;;;7.80;2.67;;;;;;;;;;5063451;28;20444;-63
2023/08/11 04:50:03;;;;;;;4.72;2.15;;;;;;;;;;5066338;28;20106;-66
2023/08/11 04:52:32;;;;;;;3.08;2.05;;;;;;;;;;5066450;28;20040;-70
2023/08/11 04:55:00;;;;;;;4.70;2.25;;;;;;;;;;5063556;28;20063;-68
2023/08/11 04:57:29;;;;;;;6.40;2.40;;;;;;;;;;5067863;28;20044;-63
2023/08/11 04:59:58;;;;;;;5.00;2.65;;;;;;;;;;5065100;28;20056;-67
2023/08/11 05:02:27;;;;;;;6.80;2.28;;;;;;;;;;5065840;28;20101;-64
2023/08/11 05:04:56;;;;;;;4.53;2.13;;;;;;;;;;5064155;28;20049;-62
2023/08/11 05:07:24;;;;;;;6.07;2.58;;;;;;;;;;5066735;28;20124;-63
2023/08/11 05:09:52;;;;;;;8.25;2.47;;;;;;;;;;5067301;28;20060;-62
2023/08/11 05:12:21;;;;;;;6.20;2.42;;;;;;;;;;5066272;28;20048;-65
2023/08/11 05:14:49;;;;;;;8.38;2.63;;;;;;;;;;5063521;28;20102;-70
2023/08/11 05:17:19;;;;;;;5.18;2.10;;;;;;;;;;5064279;28;20497;-63
2023/08/11 05:19:47;;;;;;;5.50;2.55;;;;;;;;;;5066451;28;20102;-63
2023/08/11 05:22:16;;;;;;;5.13;2.65;;;;;;;;;;5067671;28;20052;-62
2023/08/11 05:24:45;;;;;;;7.20;2.40;;;;;;;;;;5066036;28;20044;-64
2023/08/11 05:27:14;;;;;;;5.10;2.80;;;;;;;;;;5066568;28;20107;-66
2023/08/11 05:29:45;;;;;;;7.28;2.70;;;;;;;;;;5060702;28;20127;-66
2023/08/11 05:32:13;;;;;;;3.28;2.45;;;;;;;;;;5065350;28;20036;-62
2023/08/11 05:34:43;;;;;;;6.32;2.70;;;;;;;;;;5064389;28;20052;-63
2023/08/11 05:37:12;;;;;;;5.15;2.90;;;;;;;;;;5066296;28;20053;-62
2023/08/11 05:39:41;;;;;;;4.53;2.60;;;;;;;;;;5064098;28;20060;-67
2023/08/11 05:42:09;;;;;;;7.50;2.20;;;;;;;;;;5064421;28;20041;-66
2023/08/11 05:44:38;;;;;;;5.78;2.45;;;;;;;;;;5063438;28;20051;-64
2023/08/11 05:47:07;;;;;;;4.63;2.30;;;;;;;;;;5066872;28;20130;-64
2023/08/11 05:49:36;;;;;;;5.70;2.50;;;;;;;;;;5064742;28;20048;-64
2023/08/11 05:52:06;;;;;;;6.68;2.95;;;;;;;;;;5064614;28;20044;-64
2023/08/11 05:54:34;;;;;;;4.72;2.60;;;;;;;;;;5063284;28;20052;-67
2023/08/11 05:57:03;;;;;;;4.35;2.72;;;;;;;;;;5065703;28;20581;-64
2023/08/11 05:59:32;;;;;;;4.43;2.80;;;;;;;;;;5064975;28;20501;-66
2023/08/11 06:02:00;;;;;;;5.38;2.88;;;;;;;;;;5065571;28;20056;-64
2023/08/11 06:04:28;;;;;;;5.93;3.08;;;;;;;;;;5064349;28;20062;-68
2023/08/11 06:06:57;;;;;;;6.18;3.00;;;;;;;;;;5064530;28;20078;-67
2023/08/11 06:09:26;;;;;;;4.70;2.78;;;;;;;;;;5061977;28;20048;-74
2023/08/11 06:11:55;;;;;;;7.75;3.38;;;;;;;;;;5065155;28;20072;-63
2023/08/11 06:14:23;;;;;;;5.20;3.00;;;;;;;;;;5061760;28;20098;-65
2023/08/11 06:16:52;;;;;;;5.05;2.85;;;;;;;;;;5063423;28;20041;-68
2023/08/11 06:19:20;;;;;;;5.15;2.75;;;;;;;;;;5061737;28;20263;-66
2023/08/11 06:21:48;;;;;;;8.43;3.28;;;;;;;;;;5060863;28;20049;-64
2023/08/11 06:24:17;;;;;;;9.60;3.15;;;;;;;;;;5062001;28;20048;-65
2023/08/11 06:26:48;;;;;;;7.93;3.50;;;;;;;;;;5064169;28;20040;-67
2023/08/11 06:29:16;;;;;;;5.25;2.92;;;;;;;;;;5065778;28;20489;-64
2023/08/11 06:31:44;;;;;;;12.90;4.13;;;;;;;;;;5059115;28;20485;-66
2023/08/11 06:34:16;;;;;;;8.25;2.80;;;;;;;;;;5059438;28;20049;-65
2023/08/11 06:36:46;;;;;;;6.35;3.60;;;;;;;;;;5063046;28;20056;-64
2023/08/11 06:39:15;;;;;;;8.07;3.50;;;;;;;;;;5062706;28;20107;-69
2023/08/11 06:41:44;;;;;;;8.15;3.17;;;;;;;;;;5061930;28;20152;-66
2023/08/11 06:44:14;;;;;;;7.53;3.03;;;;;;;;;;5060363;28;20052;-70
2023/08/11 06:46:42;;;;;;;6.10;3.17;;;;;;;;;;5063127;28;20044;-67
2023/08/11 06:49:10;;;;;;;6.32;3.42;;;;;;;;;;5063335;28;20051;-64
2023/08/11 06:51:39;;;;;;;6.38;2.88;;;;;;;;;;5062481;28;20044;-64
2023/08/11 06:54:07;;;;;;;5.75;3.50;;;;;;;;;;5058519;28;20106;-62
2023/08/11 06:56:36;;;;;;;7.50;3.03;;;;;;;;;;5061204;28;20136;-66
2023/08/11 06:59:04;;;;;;;7.28;3.15;;;;;;;;;;5062908;28;20489;-61
2023/08/11 07:01:34;;;;;;;4.25;2.70;;;;;;;;;;5063273;28;20115;-61
2023/08/11 07:04:04;;;;;;;6.28;3.47;;;;;;;;;;5063567;28;20389;-62
2023/08/11 07:06:32;;;;;;;5.53;3.25;;;;;;;;;;5060195;28;20072;-62
2023/08/11 07:09:00;;;;;;;7.25;2.80;;;;;;;;;;5065349;28;20044;-62
2023/08/11 07:11:29;;;;;;;5.18;2.85;;;;;;;;;;5069661;28;20040;-62
2023/08/11 07:13:58;;;;;;;5.93;2.60;;;;;;;;;;5066940;28;20045;-62
2023/08/11 07:16:26;;;;;;;4.63;3.13;;;;;;;;;;5066480;28;20546;-64
2023/08/11 07:18:56;;;;;;;6.47;2.85;;;;;;;;;;5068961;28;20133;-64
2023/08/11 07:21:24;;;;;;;6.30;2.92;;;;;;;;;;5069179;28;20189;-65
2023/08/11 07:23:53;;;;;;;5.65;2.80;;;;;;;;;;5067396;28;20098;-67
2023/08/11 07:26:21;;;;;;;5.45;2.97;;;;;;;;;;5068390;28;20114;-64
2023/08/11 07:28:50;;;;;;;5.95;2.78;;;;;;;;;;5067887;28;20455;-65
2023/08/11 07:31:18;;;;;;;5.40;2.80;;;;;;;;;;5068017;28;20056;-71
2023/08/11 07:33:46;;;;;;;5.20;2.90;;;;;;;;;;5064469;28;20055;-70
2023/08/11 07:36:16;;;;;;;4.18;2.67;;;;;;;;;;5067424;28;20086;-63
2023/08/11 07:38:45;;;;;;;8.38;3.00;;;;;;;;;;5068279;28;20072;-61
2023/08/11 07:41:13;;;;;;;5.13;2.83;;;;;;;;;;5065851;28;20485;-63
2023/08/11 07:43:42;;;;;;;11.82;2.90;;;;;;;;;;5067759;28;20468;-64
2023/08/11 07:46:10;;;;;;;4.10;2.35;;;;;;;;;;5068080;28;20052;-65
2023/08/11 07:48:38;;;;;;;10.43;2.75;;;;;;;;;;5067201;28;20131;-65
2023/08/11 07:51:07;;;;;;;11.10;3.38;;;;;;;;;;5067554;28;20060;-65
2023/08/11 07:53:38;;;;;;;7.68;2.80;;;;;;;;;;5063099;28;20057;-63
2023/08/11 07:56:06;;;;;;;6.40;3.00;;;;;;;;;;5068743;28;20406;-62
2023/08/11 07:58:35;;;;;;;7.47;2.55;;;;;;;;;;5065528;28;21261;-62
2023/08/11 08:01:03;;;;;;;6.72;2.72;;;;;;;;;;5069109;28;20044;-63
2023/08/11 08:03:31;;;;;;;6.95;2.85;;;;;;;;;;5068014;28;20479;-67
2023/08/11 08:06:00;;;;;;;5.00;2.80;;;;;;;;;;5064285;28;20051;-67
2023/08/11 08:08:28;;;;;;;6.75;3.00;;;;;;;;;;5070524;28;20041;-66
2023/08/11 08:10:58;;;;;;;5.38;2.67;;;;;;;;;;5069777;28;20094;-63
2023/08/11 08:13:26;;;;;;;5.07;2.53;;;;;;;;;;5070312;28;20048;-62
2023/08/11 08:15:55;;;;;;;6.80;3.00;;;;;;;;;;5068195;28;20114;-61
2023/08/11 08:18:23;;;;;;;9.48;2.83;;;;;;;;;;5068501;28;20485;-63
2023/08/11 08:20:52;;;;;;;3.78;2.42;;;;;;;;;;5068405;28;20094;-63
2023/08/11 08:23:21;;;;;;;6.75;2.70;;;;;;;;;;5066730;28;20098;-62
2023/08/11 08:25:50;;;;;;;9.43;2.90;;;;;;;;;;5066710;28;20448;-62
2023/08/11 08:28:20;;;;;;;4.57;2.60;;;;;;;;;;5065564;28;20460;-64
2023/08/11 08:30:48;;;;;;;3.70;2.50;;;;;;;;;;5061845;28;20048;-62
2023/08/11 08:33:17;;;;;;;4.25;2.58;;;;;;;;;;5066585;28;20056;-66
2023/08/11 08:35:45;;;;;;;4.00;2.38;;;;;;;;;;5065791;28;20133;-64
2023/08/11 08:38:14;;;;;;;6.38;2.17;;;;;;;;;;5060268;28;20049;-66
2023/08/11 08:40:42;;;;;;;5.10;2.50;;;;;;;;;;5059347;28;20489;-69
2023/08/11 08:43:11;;;;;;;6.15;2.70;;;;;;;;;;5059528;28;20045;-63
2023/08/11 08:45:41;;;;;;;4.47;2.65;;;;;;;;;;5056958;28;20056;-65
2023/08/11 08:48:13;;;;;;;3.83;2.33;;;;;;;;;;5055164;28;20575;-64
2023/08/11 08:50:42;;;;;;;4.03;2.40;;;;;;;;;;5055611;28;20123;-62
2023/08/11 08:53:10;;;;;;;3.33;2.03;;;;;;;;;;5055773;28;20059;-62
2023/08/11 08:55:39;;;;;;;5.43;2.00;;;;;;;;;;5054822;28;20145;-67
2023/08/11 08:58:11;;;;;;;3.28;2.08;;;;;;;;;;5060199;28;20068;-67
2023/08/11 09:00:41;;;;;;;3.80;1.95;;;;;;;;;;5053519;28;20062;-66
2023/08/11 09:03:10;;;;;;;3.97;2.10;;;;;;;;;;5059167;28;20059;-62
2023/08/11 09:05:39;;;;;;;4.32;2.22;;;;;;;;;;5055871;28;20130;-68
2023/08/11 09:08:08;;;;;;;3.65;2.35;;;;;;;;;;5054754;28;20056;-68
2023/08/11 09:10:37;;;;;;;4.78;2.13;;;;;;;;;;5056047;28;20049;-64
2023/08/11 09:13:06;;;;;;;3.38;2.10;;;;;;;;;;5056254;28;20056;-62
2023/08/11 09:15:34;;;;;;;5.15;2.45;;;;;;;;;;5052392;28;20111;-64
2023/08/11 09:18:06;;;;;;;3.83;1.88;;;;;;;;;;5057732;28;20045;-61
2023/08/11 09:20:37;;;;;;;3.70;2.42;;;;;;;;;;5059627;28;20067;-63
2023/08/11 09:23:06;;;;;;;4.07;2.25;;;;;;;;;;5057175;28;20040;-62
2023/08/11 09:25:35;;;;;;;4.28;2.33;;;;;;;;;;5055527;28;20055;-63
2023/08/11 09:28:03;;;;;;;3.58;2.30;;;;;;;;;;5057709;28;20505;-71
2023/08/11 09:30:32;;;;;;;4.57;2.28;;;;;;;;;;5057226;28;20120;-64
2023/08/11 09:33:01;;;;;;;3.47;2.00;;;;;;;;;;5056702;28;20052;-67
2023/08/11 09:35:31;;;;;;;4.40;2.42;;;;;;;;;;5052828;28;20579;-65
2023/08/11 09:37:59;;;;;;;3.42;1.90;;;;;;;;;;5054997;28;20036;-63
2023/08/11 09:40:28;;;;;;;6.55;2.10;;;;;;;;;;5055618;28;20376;-71
2023/08/11 09:42:56;;;;;;;3.25;1.95;;;;;;;;;;5056837;28;20055;-67
2023/08/11 09:45:25;;;;;;;4.35;2.10;;;;;;;;;;5054464;28;20057;-64
2023/08/11 09:47:53;;;;;;;2.85;2.10;;;;;;;;;;5055242;28;20049;-62
2023/08/11 09:50:23;;;;;;;3.70;2.10;;;;;;;;;;5054550;28;20045;-67
2023/08/11 09:52:53;;;;;;;2.92;1.80;;;;;;;;;;5052606;28;20095;-65
2023/08/11 09:55:22;;;;;;;3.08;1.92;;;;;;;;;;5055865;28;20061;-64
2023/08/11 09:57:50;;;;;;;3.42;2.05;;;;;;;;;;5058042;28;20051;-66
2023/08/11 10:00:19;;;;;;;4.15;2.08;;;;;;;;;;5051909;28;20095;-63
2023/08/11 10:02:50;;;;;;;3.55;1.95;;;;;;;;;;5050216;28;20049;-64
2023/08/11 10:05:19;;;;;;;3.35;2.22;;;;;;;;;;5049794;28;20049;-69
2023/08/11 10:07:48;;;;;;;3.50;1.92;;;;;;;;;;5053792;28;20049;-64
2023/08/11 10:10:19;;;;;;;1.83;1.63;;;;;;;;;;5058332;28;20056;-77
2023/08/11 10:12:50;;;;;;;2.78;2.00;;;;;;;;;;5056735;28;20056;-71
2023/08/11 10:15:21;;;;;;;3.80;2.20;;;;;;;;;;5055007;28;20056;-69
2023/08/11 10:17:49;;;;;;;3.20;1.75;;;;;;;;;;5053817;28;20056;-68
2023/08/11 10:20:18;;;;;;;3.30;2.20;;;;;;;;;;5057611;28;20106;-65
2023/08/11 10:22:46;;;;;;;2.55;1.85;;;;;;;;;;5051932;28;20144;-76
2023/08/11 10:25:15;;;;;;;2.47;1.75;;;;;;;;;;5055049;28;20045;-73
2023/08/11 10:27:45;;;;;;;2.70;1.83;;;;;;;;;;5054074;28;20049;-67
2023/08/11 10:30:15;;;;;;;3.80;1.80;;;;;;;;;;5055913;28;20121;-66
2023/08/11 10:32:43;;;;;;;2.80;1.80;;;;;;;;;;5051652;28;20059;-64
2023/08/11 10:35:18;;;;;;;3.53;2.20;;;;;;;;;;5051838;28;21377;-73
2023/08/11 10:37:57;;;;;;;2.75;1.77;;;;;;;;;;5054727;28;20178;-69
2023/08/11 10:40:25;;;;;;;5.15;1.60;;;;;;;;;;5055187;28;20044;-69
2023/08/11 10:43:00;;;;;;;3.55;2.17;;;;;;;;;;5058987;28;20048;-74
2023/08/11 10:45:29;;;;;;;4.43;2.08;;;;;;;;;;5057924;28;20044;-67
2023/08/11 10:47:58;;;;;;;2.10;1.80;;;;;;;;;;5056653;28;21198;-67
2023/08/11 10:50:27;;;;;;;1.73;1.63;;;;;;;;;;5055842;28;20537;-69
2023/08/11 10:53:06;;;;;;;2.40;1.95;;;;;;;;;;5054473;28;20049;-74
2023/08/11 10:55:35;;;;;;;5.20;1.95;;;;;;;;;;5053743;28;20042;-72
2023/08/11 10:58:15;;;;;;;5.05;1.90;;;;;;;;;;5057317;28;20054;-67
2023/08/11 11:00:43;;;;;;;3.40;2.05;;;;;;;;;;5053691;28;20095;-68
2023/08/11 11:03:14;;;;;;;4.25;1.80;;;;;;;;;;5053145;28;20067;-67
2023/08/11 11:05:43;;;;;;;3.33;1.75;;;;;;;;;;5051254;28;20068;-67
2023/08/11 11:08:11;;;;;;;2.33;1.60;;;;;;;;;;5058539;28;20045;-68
2023/08/11 11:10:41;;;;;;;3.17;2.08;;;;;;;;;;5056436;28;20057;-68
2023/08/11 11:13:19;;;;;;;2.78;1.70;;;;;;;;;;5054686;28;20439;-67
2023/08/11 11:15:47;;;;;;;3.58;1.98;;;;;;;;;;5057619;28;20102;-67
2023/08/11 11:18:16;;;;;;;3.65;2.00;;;;;;;;;;5053366;28;20048;-68
2023/08/11 11:20:45;;;;;;;3.88;1.95;;;;;;;;;;5058912;28;20049;-73
2023/08/11 11:23:14;;;;;;;2.63;2.08;;;;;;;;;;5055891;28;20053;-69
2023/08/11 11:25:42;;;;;;;2.47;1.60;;;;;;;;;;5056384;28;20052;-68
2023/08/11 11:28:12;;;;;;;2.78;2.20;;;;;;;;;;5053682;28;20037;-66
2023/08/11 11:30:42;;;;;;;2.92;1.90;;;;;;;;;;5054441;28;20041;-66
2023/08/11 11:33:11;;;;;;;3.03;2.10;;;;;;;;;;5053875;28;20570;-72
2023/08/11 11:35:39;;;;;;;3.13;1.90;;;;;;;;;;5052351;28;20059;-71
2023/08/11 11:38:08;;;;;;;3.10;1.90;;;;;;;;;;5055215;28;20106;-68
2023/08/11 11:40:36;;;;;;;3.50;1.85;;;;;;;;;;5052198;28;20107;-74
2023/08/11 11:43:05;;;;;;;3.83;1.92;;;;;;;;;;5057367;28;20040;-67
2023/08/11 11:45:33;;;;;;;2.53;1.80;;;;;;;;;;5053868;28;20524;-71
2023/08/11 11:48:03;;;;;;;3.00;2.17;;;;;;;;;;5056040;28;20049;-70
2023/08/11 11:50:34;;;;;;;5.90;2.20;;;;;;;;;;5053196;28;20102;-69
2023/08/11 11:53:03;;;;;;;2.15;1.80;;;;;;;;;;5052180;28;20049;-67
2023/08/11 11:55:31;;;;;;;4.82;1.80;;;;;;;;;;5053713;28;20076;-68
2023/08/11 11:57:59;;;;;;;3.35;2.20;;;;;;;;;;5056204;28;21799;-67
2023/08/11 12:00:29;;;;;;;3.85;2.28;;;;;;;;;;5060714;28;20279;-67
2023/08/11 12:02:57;;;;;;;4.43;2.15;;;;;;;;;;5060673;28;20099;-67
2023/08/11 12:05:28;;;;;;;3.53;1.95;;;;;;;;;;5059953;28;20087;-67
2023/08/11 12:07:56;;;;;;;10.95;2.70;;;;;;;;;;5062135;28;20044;-71
2023/08/11 12:10:31;;;;;;;2.25;1.83;;;;;;;;;;5063191;28;20416;-68
2023/08/11 12:13:00;;;;;;;4.57;2.03;;;;;;;;;;5063905;28;20075;-68
2023/08/11 12:15:29;;;;;;;2.95;2.20;;;;;;;;;;5060742;28;20040;-67
2023/08/11 12:17:58;;;;;;;2.40;1.60;;;;;;;;;;5059797;28;20115;-67
2023/08/11 12:20:30;;;;;;;3.17;2.13;;;;;;;;;;5058659;28;20143;-68
2023/08/11 12:22:59;;;;;;;2.70;1.90;;;;;;;;;;5059542;28;20048;-71
2023/08/11 12:25:28;;;;;;;3.05;1.98;;;;;;;;;;5061827;28;20068;-70
2023/08/11 12:27:57;;;;;;;5.60;1.77;;;;;;;;;;5059053;28;20669;-74
2023/08/11 12:30:26;;;;;;;4.90;2.08;;;;;;;;;;5056261;28;20102;-67
2023/08/11 12:32:54;;;;;;;2.55;1.63;;;;;;;;;;5057774;28;20048;-67
2023/08/11 12:35:23;;;;;;;3.78;2.10;;;;;;;;;;5057788;28;20374;-67
2023/08/11 12:37:53;;;;;;;2.47;1.80;;;;;;;;;;5059380;28;20106;-70
2023/08/11 12:40:22;;;;;;;2.13;1.88;;;;;;;;;;5059083;28;20131;-72
2023/08/11 12:42:51;;;;;;;4.03;1.80;;;;;;;;;;5060000;28;20049;-68
2023/08/11 12:45:20;;;;;;;2.75;2.00;;;;;;;;;;5056991;28;20064;-68
2023/08/11 12:47:48;;;;;;;2.80;1.85;;;;;;;;;;5053993;28;20167;-67
2023/08/11 12:50:17;;;;;;;3.50;2.05;;;;;;;;;;5053354;28;20127;-72
2023/08/11 12:52:45;;;;;;;2.80;1.90;;;;;;;;;;5058214;28;20413;-68
2023/08/11 12:55:15;;;;;;;4.93;1.70;;;;;;;;;;5055592;28;20608;-69
2023/08/11 12:57:45;;;;;;;2.72;1.75;;;;;;;;;;5054377;28;20048;-67
2023/08/11 13:00:14;;;;;;;2.17;1.60;;;;;;;;;;5051569;28;20088;-68
2023/08/11 13:02:43;;;;;;;3.70;1.60;;;;;;;;;;5058094;28;20061;-70
2023/08/11 13:05:11;;;;;;;2.65;1.70;;;;;;;;;;5059522;28;20582;-69
2023/08/11 13:07:39;;;;;;;2.22;1.50;;;;;;;;;;5057652;28;20445;-66
2023/08/11 13:10:10;;;;;;;2.38;1.60;;;;;;;;;;5057087;28;20040;-69
2023/08/11 13:12:40;;;;;;;2.63;1.80;;;;;;;;;;5056798;28;20095;-67
2023/08/11 13:15:09;;;;;;;2.97;1.80;;;;;;;;;;5055661;28;20110;-72
2023/08/11 13:17:37;;;;;;;4.25;1.63;;;;;;;;;;5056128;28;20049;-77
2023/08/11 13:20:09;;;;;;;2.30;1.70;;;;;;;;;;5054182;28;20535;-74
2023/08/11 13:22:38;;;;;;;3.42;1.80;;;;;;;;;;5055298;28;20053;-67
2023/08/11 13:25:07;;;;;;;3.53;1.83;;;;;;;;;;5056600;28;20512;-67
2023/08/11 13:27:36;;;;;;;5.90;1.60;;;;;;;;;;5055766;28;20049;-75
2023/08/11 13:30:08;;;;;;;2.47;1.50;;;;;;;;;;5055633;28;20043;-69
2023/08/11 13:32:36;;;;;;;2.10;1.75;;;;;;;;;;5056335;28;20472;-69
2023/08/11 13:35:05;;;;;;;2.95;1.90;;;;;;;;;;5054026;28;20075;-67
2023/08/11 13:37:34;;;;;;;2.83;1.50;;;;;;;;;;5054325;28;20072;-75
2023/08/11 13:40:05;;;;;;;2.08;1.58;;;;;;;;;;5050029;28;20060;-67
2023/08/11 13:42:33;;;;;;;2.88;1.73;;;;;;;;;;5053758;28;20045;-67
2023/08/11 13:45:02;;;;;;;1.85;1.42;;;;;;;;;;5055258;28;20040;-67
2023/08/11 13:47:32;;;;;;;3.30;1.48;;;;;;;;;;5054876;28;20044;-68
2023/08/11 13:50:00;;;;;;;2.20;1.40;;;;;;;;;;5054138;28;20048;-69
2023/08/11 13:52:28;;;;;;;3.10;1.60;;;;;;;;;;5057199;28;20048;-69
2023/08/11 13:54:57;;;;;;;3.53;1.65;;;;;;;;;;5050931;28;20530;-73
2023/08/11 13:57:26;;;;;;;1.67;1.33;;;;;;;;;;5059439;28;20966;-67
2023/08/11 13:59:56;;;;;;;2.33;1.77;;;;;;;;;;5053779;28;20147;-66
2023/08/11 14:02:25;;;;;;;8.27;1.65;;;;;;;;;;5055613;28;20114;-70
2023/08/11 14:04:55;;;;;;;3.97;2.00;;;;;;;;;;5056501;28;20044;-72
2023/08/11 14:07:23;;;;;;;1.60;1.35;;;;;;;;;;5053849;28;20136;-70
2023/08/11 14:10:00;;;;;;;2.13;1.45;;;;;;;;;;5056576;28;20047;-68
2023/08/11 14:12:29;;;;;;;5.03;1.85;;;;;;;;;;5054449;28;20092;-68
2023/08/11 14:14:57;;;;;;;3.00;1.48;;;;;;;;;;5058200;28;20063;-69
2023/08/11 14:17:25;;;;;;;2.63;1.38;;;;;;;;;;5054583;28;20075;-71
2023/08/11 14:19:55;;;;;;;2.72;1.80;;;;;;;;;;5054925;28;20045;-67
2023/08/11 14:22:24;;;;;;;2.30;1.38;;;;;;;;;;5055411;28;20658;-68
2023/08/11 14:24:52;;;;;;;3.83;1.70;;;;;;;;;;5053905;28;20102;-66
2023/08/11 14:27:23;;;;;;;2.50;1.70;;;;;;;;;;5056353;28;20055;-67
2023/08/11 14:29:51;;;;;;;4.95;2.50;;;;;;;;;;5054729;28;20139;-68
2023/08/11 14:32:19;;;;;;;2.88;1.60;;;;;;;;;;5057556;28;20044;-67
2023/08/11 14:34:53;;;;;;;18.15;6.70;;;;;;;;;;5054264;28;20055;-70
2023/08/11 14:37:23;;;;;;;3.13;1.60;;;;;;;;;;5055149;28;20045;-70
2023/08/11 14:39:52;;;;;;;3.45;2.47;;;;;;;;;;5051340;28;20173;-66
2023/08/11 14:42:20;;;;;;;2.53;1.50;;;;;;;;;;5053836;28;20075;-68
2023/08/11 14:44:48;;;;;;;4.07;2.22;;;;;;;;;;5055604;28;20049;-69
2023/08/11 14:47:17;;;;;;;5.45;2.10;;;;;;;;;;5055426;28;20052;-68
2023/08/11 14:49:45;;;;;;;2.58;1.50;;;;;;;;;;5057120;28;20044;-69
2023/08/11 14:52:14;;;;;;;13.25;5.00;;;;;;;;;;5055876;28;20505;-67
2023/08/11 14:54:44;;;;;;;2.00;1.60;;;;;;;;;;5051246;28;20055;-67